createdAt,value
2018-12-31T00:02:14.522Z,10.68
2018-12-31T00:04:45.809Z,9.40
2018-12-31T00:07:15.324Z,10.38
2018-12-31T00:09:44.732Z,9.70
2018-12-31T00:12:14.185Z,9.67
2018-12-31T00:14:43.712Z,9.63
2018-12-31T00:17:13.131Z,12.70
2018-12-31T00:19:42.613Z,9.50
2018-12-31T00:22:12.127Z,12.60
2018-12-31T00:24:41.984Z,11.00
2018-12-31T00:27:11.626Z,17.73
2018-12-31T00:29:41.089Z,11.23
2018-12-31T00:32:10.613Z,12.20
2018-12-31T00:34:40.083Z,12.07
2018-12-31T00:37:09.632Z,12.20
2018-12-31T00:39:39.095Z,13.43
2018-12-31T00:42:08.602Z,12.55
2018-12-31T00:44:38.099Z,15.03
2018-12-31T00:47:07.711Z,12.23
2018-12-31T00:49:37.143Z,10.72
2018-12-31T00:52:06.643Z,10.40
2018-12-31T00:54:36.075Z,10.40
2018-12-31T00:57:06.775Z,10.63
2018-12-31T00:59:36.214Z,8.48
2018-12-31T01:02:05.715Z,8.18
2018-12-31T01:04:35.129Z,8.10
2018-12-31T01:07:04.616Z,6.97
2018-12-31T01:09:34.065Z,8.40
2018-12-31T01:12:03.549Z,8.65
2018-12-31T01:14:33.619Z,8.37
2018-12-31T01:17:03.068Z,11.18
2018-12-31T01:19:32.521Z,10.28
2018-12-31T01:22:01.266Z,13.18
2018-12-31T01:24:30.948Z,12.58
2018-12-31T01:27:00.436Z,10.45
2018-12-31T01:29:29.952Z,12.18
2018-12-31T01:31:59.587Z,11.83
2018-12-31T01:34:29.089Z,9.43
2018-12-31T01:36:58.525Z,13.27
2018-12-31T01:39:28.303Z,10.63
2018-12-31T01:41:57.760Z,10.78
2018-12-31T01:44:27.328Z,8.38
2018-12-31T01:46:56.912Z,8.85
2018-12-31T01:49:26.353Z,8.78
2018-12-31T01:51:55.813Z,9.58
2018-12-31T01:54:25.525Z,8.73
2018-12-31T01:56:54.963Z,8.55
2018-12-31T01:59:24.468Z,10.30
2018-12-31T02:01:54.143Z,7.37
2018-12-31T02:04:23.661Z,8.93
2018-12-31T02:06:53.085Z,7.30
2018-12-31T02:09:23.143Z,6.30
2018-12-31T02:11:52.887Z,7.12
2018-12-31T02:14:22.342Z,7.95
2018-12-31T02:16:51.865Z,6.20
2018-12-31T02:19:21.593Z,9.63
2018-12-31T02:21:51.033Z,9.45
2018-12-31T02:24:20.473Z,8.90
2018-12-31T02:26:50.303Z,7.75
2018-12-31T02:29:19.949Z,7.17
2018-12-31T02:31:49.721Z,7.30
2018-12-31T02:34:19.198Z,7.80
2018-12-31T02:36:48.624Z,7.75
2018-12-31T02:39:18.355Z,8.03
2018-12-31T02:41:47.812Z,6.15
2018-12-31T02:44:17.277Z,8.73
2018-12-31T02:46:46.929Z,6.87
2018-12-31T02:49:16.385Z,8.33
2018-12-31T02:51:45.877Z,7.80
2018-12-31T02:54:15.405Z,8.15
2018-12-31T02:56:44.855Z,8.20
2018-12-31T02:59:14.392Z,9.35
2018-12-31T03:01:43.829Z,7.95
2018-12-31T03:04:13.630Z,7.42
2018-12-31T03:06:43.070Z,7.80
2018-12-31T03:09:12.508Z,9.55
2018-12-31T03:11:42.151Z,8.73
2018-12-31T03:14:11.596Z,8.30
2018-12-31T03:16:41.090Z,8.48
2018-12-31T03:19:10.653Z,9.95
2018-12-31T03:21:40.254Z,8.85
2018-12-31T03:24:09.730Z,7.67
2018-12-31T03:26:39.332Z,7.33
2018-12-31T03:29:08.820Z,8.83
2018-12-31T03:31:38.240Z,9.73
2018-12-31T03:34:07.949Z,8.03
2018-12-31T03:36:37.374Z,9.13
2018-12-31T03:39:07.800Z,7.72
2018-12-31T03:41:37.470Z,7.40
2018-12-31T03:44:06.885Z,7.20
2018-12-31T03:46:37.523Z,6.35
2018-12-31T03:49:07.205Z,5.25
2018-12-31T03:51:37.297Z,7.80
2018-12-31T03:54:06.707Z,5.40
2018-12-31T03:56:37.431Z,5.37
2018-12-31T03:59:07.049Z,5.45
2018-12-31T04:01:36.478Z,6.00
2018-12-31T04:04:06.240Z,5.05
2018-12-31T04:06:35.699Z,3.80
2018-12-31T04:09:06.772Z,5.92
2018-12-31T04:11:36.215Z,3.90
2018-12-31T04:14:05.647Z,4.05
2018-12-31T04:16:35.697Z,3.35
2018-12-31T04:19:05.125Z,3.97
2018-12-31T04:21:34.650Z,4.45
2018-12-31T04:24:04.158Z,4.60
2018-12-31T04:26:33.682Z,4.80
2018-12-31T04:29:03.172Z,4.37
2018-12-31T04:31:32.647Z,4.42
2018-12-31T04:34:02.136Z,4.65
2018-12-31T04:36:31.561Z,5.15
2018-12-31T04:39:01.093Z,4.47
2018-12-31T04:41:30.629Z,3.35
2018-12-31T04:44:00.132Z,3.33
2018-12-31T04:46:29.643Z,4.30
2018-12-31T04:48:59.358Z,4.53
2018-12-31T04:51:28.765Z,3.67
2018-12-31T04:53:58.255Z,5.67
2018-12-31T04:56:27.796Z,4.08
2018-12-31T04:58:57.307Z,6.20
2018-12-31T05:01:26.735Z,3.92
2018-12-31T05:03:56.228Z,4.35
2018-12-31T05:06:25.869Z,2.90
2018-12-31T05:08:55.293Z,2.55
2018-12-31T05:11:24.741Z,4.03
2018-12-31T05:13:54.573Z,2.45
2018-12-31T05:16:24.119Z,3.08
2018-12-31T05:18:53.889Z,3.15
2018-12-31T05:21:23.479Z,2.55
2018-12-31T05:23:53.430Z,2.92
2018-12-31T05:26:22.879Z,1.87
2018-12-31T05:28:52.422Z,2.33
2018-12-31T05:31:21.970Z,2.30
2018-12-31T05:33:51.430Z,2.08
2018-12-31T05:36:20.934Z,2.30
2018-12-31T05:38:50.586Z,2.13
2018-12-31T05:41:20.049Z,2.15
2018-12-31T05:43:49.904Z,1.70
2018-12-31T05:46:19.348Z,2.27
2018-12-31T05:48:48.905Z,2.60
2018-12-31T05:51:18.604Z,2.73
2018-12-31T05:53:48.150Z,3.08
2018-12-31T05:56:17.679Z,3.58
2018-12-31T05:58:47.246Z,2.35
2018-12-31T06:01:16.716Z,3.60
2018-12-31T06:03:46.742Z,2.30
2018-12-31T06:06:16.202Z,1.98
2018-12-31T06:08:45.560Z,2.40
2018-12-31T06:11:15.446Z,2.10
2018-12-31T06:13:44.865Z,2.08
2018-12-31T06:16:14.413Z,2.20
2018-12-31T06:18:43.907Z,3.72
2018-12-31T06:21:13.357Z,3.17
2018-12-31T06:23:42.853Z,2.83
2018-12-31T06:26:12.395Z,4.22
2018-12-31T06:28:41.871Z,2.22
2018-12-31T06:31:11.354Z,3.95
2018-12-31T06:33:40.868Z,3.80
2018-12-31T06:36:10.468Z,3.72
2018-12-31T06:38:39.877Z,3.33
2018-12-31T06:41:09.395Z,3.00
2018-12-31T06:43:39.084Z,2.65
2018-12-31T06:46:08.597Z,4.50
2018-12-31T06:48:38.003Z,3.93
2018-12-31T06:51:07.849Z,4.17
2018-12-31T06:53:37.269Z,4.92
2018-12-31T06:56:06.703Z,5.67
2018-12-31T06:58:36.461Z,4.30
2018-12-31T07:01:06.078Z,4.77
2018-12-31T07:03:35.542Z,6.15
2018-12-31T07:06:05.111Z,4.85
2018-12-31T07:08:34.513Z,3.27
2018-12-31T07:11:04.102Z,5.85
2018-12-31T07:13:33.519Z,3.58
2018-12-31T07:16:03.014Z,6.47
2018-12-31T07:18:32.589Z,6.30
2018-12-31T07:21:02.094Z,6.05
2018-12-31T07:23:31.787Z,3.85
2018-12-31T07:26:01.254Z,6.87
2018-12-31T07:28:32.601Z,8.28
2018-12-31T07:31:02.077Z,5.75
2018-12-31T07:33:31.501Z,5.72
2018-12-31T07:36:00.989Z,5.00
2018-12-31T07:38:30.445Z,6.92
2018-12-31T07:40:59.919Z,8.73
2018-12-31T07:43:29.662Z,4.43
2018-12-31T07:45:59.153Z,6.57
2018-12-31T07:48:28.555Z,4.65
2018-12-31T07:50:58.101Z,6.35
2018-12-31T07:53:27.517Z,6.40
2018-12-31T07:55:56.942Z,6.37
2018-12-31T07:58:26.521Z,7.03
2018-12-31T08:00:55.935Z,4.65
2018-12-31T08:03:25.411Z,6.95
2018-12-31T08:05:54.999Z,9.40
2018-12-31T08:08:24.427Z,8.63
2018-12-31T08:10:54.590Z,7.85
2018-12-31T08:13:24.175Z,11.15
2018-12-31T08:15:53.689Z,10.40
2018-12-31T08:18:23.113Z,10.63
2018-12-31T08:20:52.807Z,5.55
2018-12-31T08:23:23.434Z,11.68
2018-12-31T08:25:54.034Z,7.67
2018-12-31T08:28:24.232Z,9.50
2018-12-31T08:30:53.999Z,7.42
2018-12-31T08:33:23.847Z,7.60
2018-12-31T08:35:53.743Z,5.25
2018-12-31T08:38:23.230Z,8.55
2018-12-31T08:40:52.691Z,8.88
2018-12-31T08:43:22.163Z,9.03
2018-12-31T08:45:51.797Z,10.23
2018-12-31T08:48:21.321Z,10.13
2018-12-31T08:50:50.788Z,7.03
2018-12-31T08:53:20.276Z,8.80
2018-12-31T08:55:49.816Z,8.13
2018-12-31T08:58:19.348Z,10.68
2018-12-31T09:00:49.044Z,11.55
2018-12-31T09:03:18.563Z,6.00
2018-12-31T09:05:47.995Z,10.38
2018-12-31T09:08:17.466Z,9.35
2018-12-31T09:10:47.045Z,6.62
2018-12-31T09:13:16.502Z,9.63
2018-12-31T09:15:48.301Z,5.37
2018-12-31T09:18:20.606Z,8.38
2018-12-31T09:20:50.316Z,10.00
2018-12-31T09:23:19.806Z,5.78
2018-12-31T09:25:51.938Z,7.97
2018-12-31T09:28:21.639Z,7.60
2018-12-31T09:30:51.454Z,11.07
2018-12-31T09:33:22.406Z,9.70
2018-12-31T09:35:51.846Z,10.00
2018-12-31T09:38:21.438Z,8.58
2018-12-31T09:40:50.857Z,8.95
2018-12-31T09:43:20.858Z,10.70
2018-12-31T09:45:50.408Z,7.67
2018-12-31T09:48:19.921Z,9.60
2018-12-31T09:50:49.564Z,7.25
2018-12-31T09:53:21.692Z,11.15
2018-12-31T09:55:51.263Z,6.20
2018-12-31T09:58:20.725Z,5.65
2018-12-31T10:00:50.334Z,11.75
2018-12-31T10:03:19.866Z,7.03
2018-12-31T10:05:49.514Z,7.95
2018-12-31T10:08:19.023Z,8.10
2018-12-31T10:10:48.497Z,8.03
2018-12-31T10:13:18.001Z,10.72
2018-12-31T10:15:47.531Z,8.43
2018-12-31T10:18:16.982Z,7.42
2018-12-31T10:20:46.471Z,5.85
2018-12-31T10:23:15.943Z,7.83
2018-12-31T10:25:45.482Z,7.22
2018-12-31T10:28:14.955Z,7.20
2018-12-31T10:30:44.897Z,6.42
2018-12-31T10:33:14.376Z,10.38
2018-12-31T10:35:43.815Z,9.88
2018-12-31T10:38:13.695Z,7.13
2018-12-31T10:40:43.111Z,8.27
2018-12-31T10:43:12.616Z,7.40
2018-12-31T10:45:42.110Z,14.47
2018-12-31T10:48:11.593Z,8.28
2018-12-31T10:50:41.016Z,9.30
2018-12-31T10:53:10.495Z,7.28
2018-12-31T10:55:39.926Z,6.42
2018-12-31T10:58:09.495Z,8.93
2018-12-31T11:00:38.968Z,9.35
2018-12-31T11:03:08.379Z,6.55
2018-12-31T11:05:37.936Z,8.33
2018-12-31T11:08:07.445Z,7.05
2018-12-31T11:10:36.859Z,7.93
2018-12-31T11:13:06.723Z,7.45
2018-12-31T11:15:36.151Z,11.40
2018-12-31T11:18:05.589Z,11.43
2018-12-31T11:20:37.701Z,13.95
2018-12-31T11:23:07.211Z,18.40
2018-12-31T11:25:37.792Z,14.50
2018-12-31T11:28:07.472Z,16.10
2018-12-31T11:30:36.890Z,12.45
2018-12-31T11:33:06.702Z,12.00
2018-12-31T11:35:38.163Z,10.88
2018-12-31T11:38:07.629Z,9.78
2018-12-31T11:40:37.145Z,7.93
2018-12-31T11:43:06.642Z,7.40
2018-12-31T11:45:36.093Z,11.68
2018-12-31T11:48:06.081Z,14.58
2018-12-31T11:50:35.537Z,9.00
2018-12-31T11:53:05.011Z,7.95
2018-12-31T11:55:34.492Z,5.30
2018-12-31T11:58:03.985Z,6.50
2018-12-31T12:00:33.436Z,7.37
2018-12-31T12:03:02.862Z,6.53
2018-12-31T12:05:32.336Z,5.65
2018-12-31T12:08:01.810Z,5.90
2018-12-31T12:10:31.217Z,8.90
2018-12-31T12:13:00.794Z,4.53
2018-12-31T12:15:30.216Z,7.78
2018-12-31T12:18:00.080Z,18.75
2018-12-31T12:20:29.674Z,10.88
2018-12-31T12:22:59.286Z,11.18
2018-12-31T12:25:28.723Z,6.35
2018-12-31T12:27:58.227Z,8.03
2018-12-31T12:30:27.793Z,7.80
2018-12-31T12:32:57.365Z,7.80
2018-12-31T12:35:26.702Z,5.23
2018-12-31T12:37:56.261Z,11.40
2018-12-31T12:40:25.781Z,11.78
2018-12-31T12:42:55.226Z,10.38
2018-12-31T12:45:24.706Z,6.35
2018-12-31T12:47:54.197Z,8.98
2018-12-31T12:50:24.040Z,6.40
2018-12-31T12:52:53.513Z,5.97
2018-12-31T12:55:23.100Z,5.40
2018-12-31T12:57:52.535Z,9.60
2018-12-31T13:00:22.004Z,10.28
2018-12-31T13:02:51.640Z,12.03
2018-12-31T13:05:21.485Z,9.85
2018-12-31T13:07:50.931Z,8.55
2018-12-31T13:10:20.468Z,22.42
2018-12-31T13:12:49.907Z,27.17
2018-12-31T13:15:20.053Z,15.63
2018-12-31T13:17:49.793Z,15.38
2018-12-31T13:20:19.257Z,6.67
2018-12-31T13:22:48.688Z,6.30
2018-12-31T13:25:18.192Z,8.75
2018-12-31T13:27:47.683Z,7.15
2018-12-31T13:30:17.147Z,5.78
2018-12-31T13:32:46.697Z,7.17
2018-12-31T13:35:16.115Z,6.83
2018-12-31T13:37:45.653Z,8.05
2018-12-31T13:40:15.218Z,8.50
2018-12-31T13:42:44.633Z,10.10
2018-12-31T13:45:14.079Z,10.90
2018-12-31T13:47:43.511Z,10.30
2018-12-31T13:50:12.997Z,11.65
2018-12-31T13:52:42.491Z,25.62
2018-12-31T13:55:11.933Z,16.45
2018-12-31T13:57:41.507Z,15.03
2018-12-31T14:00:11.130Z,20.20
2018-12-31T14:02:40.597Z,19.62
2018-12-31T14:05:10.405Z,15.60
2018-12-31T14:07:39.815Z,35.10
2018-12-31T14:10:09.483Z,33.30
2018-12-31T14:12:39.021Z,41.80
2018-12-31T14:15:08.530Z,361.07
2018-12-31T14:17:37.972Z,679.70
2018-12-31T14:20:07.572Z,708.17
2018-12-31T14:22:40.105Z,573.07
2018-12-31T14:25:09.541Z,486.17
2018-12-31T14:27:39.043Z,225.65
2018-12-31T14:30:10.140Z,191.60
2018-12-31T14:32:39.666Z,114.70
2018-12-31T14:35:09.133Z,233.13
2018-12-31T14:37:38.653Z,67.05
2018-12-31T14:40:09.001Z,35.58
2018-12-31T14:42:38.420Z,39.40
2018-12-31T14:45:07.904Z,59.13
2018-12-31T14:47:37.455Z,51.55
2018-12-31T14:50:07.146Z,61.65
2018-12-31T14:53:10.540Z,60.58
2018-12-31T14:55:50.727Z,41.08
2018-12-31T14:58:20.189Z,39.25
2018-12-31T15:00:49.871Z,37.10
2018-12-31T15:03:19.333Z,55.28
2018-12-31T15:05:48.834Z,64.07
2018-12-31T15:08:18.459Z,43.40
2018-12-31T15:10:48.031Z,37.63
2018-12-31T15:13:17.488Z,33.20
2018-12-31T15:15:46.980Z,33.53
2018-12-31T15:18:16.434Z,49.58
2018-12-31T15:20:46.447Z,56.15
2018-12-31T15:23:15.898Z,65.17
2018-12-31T15:25:45.440Z,52.70
2018-12-31T15:28:15.049Z,45.03
2018-12-31T15:30:44.550Z,49.48
2018-12-31T15:33:14.408Z,57.30
2018-12-31T15:35:43.925Z,52.80
2018-12-31T15:38:13.429Z,33.78
2018-12-31T15:40:42.948Z,30.50
2018-12-31T15:43:12.715Z,34.38
2018-12-31T15:45:42.253Z,37.28
2018-12-31T15:48:11.733Z,40.55
2018-12-31T15:50:41.305Z,41.20
2018-12-31T15:53:11.059Z,41.63
2018-12-31T15:55:40.638Z,55.48
2018-12-31T15:58:10.355Z,63.30
2018-12-31T16:00:39.864Z,56.77
2018-12-31T16:03:09.852Z,74.25
2018-12-31T16:05:39.601Z,65.83
2018-12-31T16:08:09.233Z,61.00
2018-12-31T16:10:38.835Z,57.30
2018-12-31T16:13:08.287Z,55.67
2018-12-31T16:15:37.784Z,54.83
2018-12-31T16:18:07.277Z,45.23
2018-12-31T16:20:37.312Z,39.10
2018-12-31T16:23:06.831Z,100.67
2018-12-31T16:25:36.969Z,31.70
2018-12-31T16:28:07.414Z,30.97
2018-12-31T16:30:37.056Z,29.92
2018-12-31T16:33:07.010Z,33.02
2018-12-31T16:35:36.787Z,36.23
2018-12-31T16:38:06.318Z,39.95
2018-12-31T16:40:35.783Z,32.13
2018-12-31T16:43:05.576Z,30.30
2018-12-31T16:45:35.010Z,34.08
2018-12-31T16:48:04.542Z,35.10
2018-12-31T16:50:34.063Z,49.33
2018-12-31T16:53:03.568Z,43.30
2018-12-31T16:55:34.138Z,36.05
2018-12-31T16:58:03.742Z,35.83
2018-12-31T17:00:33.334Z,37.03
2018-12-31T17:03:02.803Z,33.35
2018-12-31T17:05:32.323Z,33.18
2018-12-31T17:08:02.283Z,30.02
2018-12-31T17:10:31.689Z,30.95
2018-12-31T17:13:01.110Z,34.57
2018-12-31T17:15:30.636Z,34.78
2018-12-31T17:18:00.063Z,34.23
2018-12-31T17:20:29.670Z,36.87
2018-12-31T17:22:59.203Z,41.73
2018-12-31T17:25:28.690Z,38.08
2018-12-31T17:27:58.280Z,36.85
2018-12-31T17:30:27.731Z,53.17
2018-12-31T17:32:57.392Z,44.23
2018-12-31T17:35:26.915Z,39.45
2018-12-31T17:37:56.345Z,40.98
2018-12-31T17:40:25.925Z,41.20
2018-12-31T17:42:55.428Z,41.53
2018-12-31T17:45:25.158Z,40.40
2018-12-31T17:47:54.701Z,50.67
2018-12-31T17:50:24.190Z,39.53
2018-12-31T17:52:53.626Z,38.98
2018-12-31T17:55:23.135Z,39.50
2018-12-31T17:57:52.930Z,40.50
2018-12-31T18:00:22.472Z,46.18
2018-12-31T18:02:51.909Z,55.63
2018-12-31T18:05:21.424Z,117.00
2018-12-31T18:07:50.954Z,71.50
2018-12-31T18:10:20.924Z,100.60
2018-12-31T18:12:50.356Z,150.95
2018-12-31T18:15:20.008Z,76.92
2018-12-31T18:17:49.420Z,72.82
2018-12-31T18:20:18.847Z,61.57
2018-12-31T18:22:48.486Z,59.23
2018-12-31T18:25:17.993Z,56.88
2018-12-31T18:27:47.445Z,58.38
2018-12-31T18:30:16.899Z,51.60
2018-12-31T18:32:46.429Z,55.03
2018-12-31T18:35:16.133Z,58.80
2018-12-31T18:37:45.645Z,48.90
2018-12-31T18:40:15.078Z,45.55
2018-12-31T18:42:44.493Z,49.45
2018-12-31T18:45:14.016Z,54.03
2018-12-31T18:47:43.446Z,53.68
2018-12-31T18:50:12.915Z,64.97
2018-12-31T18:52:42.359Z,84.50
2018-12-31T18:55:12.125Z,68.28
2018-12-31T18:57:41.546Z,59.73
2018-12-31T19:00:11.077Z,54.13
2018-12-31T19:02:40.598Z,61.03
2018-12-31T19:05:11.240Z,64.37
2018-12-31T19:07:40.752Z,69.55
2018-12-31T19:10:10.322Z,77.72
2018-12-31T19:12:39.674Z,71.92
2018-12-31T19:15:09.162Z,87.85
2018-12-31T19:17:38.668Z,85.32
2018-12-31T19:20:08.245Z,85.15
2018-12-31T19:22:37.980Z,80.75
2018-12-31T19:25:07.502Z,91.57
2018-12-31T19:27:37.096Z,85.55
2018-12-31T19:30:06.982Z,78.65
2018-12-31T19:32:36.479Z,80.97
2018-12-31T19:35:06.299Z,87.08
2018-12-31T19:37:35.838Z,79.45
2018-12-31T19:40:06.499Z,81.82
2018-12-31T19:42:36.173Z,81.47
2018-12-31T19:45:05.719Z,81.20
2018-12-31T19:47:35.444Z,82.12
2018-12-31T19:50:05.198Z,78.35
2018-12-31T19:52:34.660Z,73.47
2018-12-31T19:55:04.244Z,81.73
2018-12-31T19:57:33.794Z,61.10
2018-12-31T20:00:03.848Z,66.70
2018-12-31T20:02:33.453Z,68.37
2018-12-31T20:05:02.956Z,61.05
2018-12-31T20:07:32.468Z,56.63
2018-12-31T20:10:01.985Z,49.25
2018-12-31T20:12:31.807Z,50.98
2018-12-31T20:15:01.274Z,58.87
2018-12-31T20:17:30.753Z,53.98
2018-12-31T20:20:00.265Z,42.85
2018-12-31T20:22:31.468Z,41.48
2018-12-31T20:25:00.823Z,46.60
2018-12-31T20:27:30.357Z,37.35
2018-12-31T20:29:59.806Z,38.50
2018-12-31T20:32:29.397Z,35.50
2018-12-31T20:34:58.888Z,38.17
2018-12-31T20:37:28.367Z,40.48
2018-12-31T20:39:57.773Z,41.98
2018-12-31T20:42:27.525Z,39.73
2018-12-31T20:44:56.995Z,40.70
2018-12-31T20:47:26.408Z,45.87
2018-12-31T20:49:55.963Z,48.20
2018-12-31T20:52:25.374Z,51.50
2018-12-31T20:54:54.901Z,49.18
2018-12-31T20:57:24.407Z,48.73
2018-12-31T20:59:53.958Z,49.20
2018-12-31T21:02:23.901Z,50.67
2018-12-31T21:04:53.628Z,140.40
2018-12-31T21:07:23.056Z,49.42
2018-12-31T21:09:52.535Z,47.33
2018-12-31T21:12:22.410Z,46.65
2018-12-31T21:14:51.879Z,44.60
2018-12-31T21:17:21.484Z,45.78
2018-12-31T21:19:51.615Z,44.83
2018-12-31T21:22:21.196Z,42.27
2018-12-31T21:24:50.664Z,41.33
2018-12-31T21:27:20.110Z,40.00
2018-12-31T21:29:50.155Z,41.92
2018-12-31T21:32:19.696Z,34.60
2018-12-31T21:34:49.121Z,39.08
2018-12-31T21:37:18.592Z,36.73
2018-12-31T21:39:48.402Z,37.65
2018-12-31T21:42:18.521Z,49.48
2018-12-31T21:44:48.082Z,33.17
2018-12-31T21:47:17.564Z,38.13
2018-12-31T21:49:46.979Z,37.42
2018-12-31T21:52:16.448Z,35.07
2018-12-31T21:54:46.329Z,33.15
2018-12-31T21:57:15.754Z,34.48
2018-12-31T21:59:45.296Z,41.37
2018-12-31T22:02:14.723Z,40.15
2018-12-31T22:04:44.229Z,42.78
2018-12-31T22:07:14.168Z,37.53
2018-12-31T22:09:43.608Z,40.35
2018-12-31T22:12:13.225Z,42.58
2018-12-31T22:14:42.663Z,35.25
2018-12-31T22:17:12.160Z,33.98
2018-12-31T22:19:41.796Z,37.88
2018-12-31T22:22:11.218Z,32.73
2018-12-31T22:24:40.680Z,40.23
2018-12-31T22:27:10.288Z,37.40
2018-12-31T22:29:39.947Z,40.12
2018-12-31T22:32:10.453Z,35.25
2018-12-31T22:34:40.230Z,34.08
2018-12-31T22:37:09.690Z,36.40
2018-12-31T22:39:39.101Z,35.78
2018-12-31T22:42:08.557Z,38.15
2018-12-31T22:44:38.046Z,35.83
2018-12-31T22:47:07.569Z,32.90
2018-12-31T22:49:37.064Z,33.02
2018-12-31T22:52:06.553Z,38.98
2018-12-31T22:54:36.672Z,40.93
2018-12-31T22:57:06.426Z,43.28
2018-12-31T22:59:35.930Z,59.30
2018-12-31T23:02:05.523Z,46.28
2018-12-31T23:04:34.964Z,40.35
2018-12-31T23:07:07.014Z,56.13
2018-12-31T23:09:41.150Z,65.95
2018-12-31T23:12:08.187Z,92.17
2018-12-31T23:14:37.738Z,117.40
2018-12-31T23:17:09.725Z,127.72
2018-12-31T23:19:41.894Z,92.55
2018-12-31T23:22:10.607Z,99.70
2018-12-31T23:24:40.124Z,91.92
2018-12-31T23:27:10.719Z,162.82
2018-12-31T23:29:40.168Z,96.40
2018-12-31T23:32:09.604Z,106.97
2018-12-31T23:34:39.066Z,101.25
2018-12-31T23:37:08.559Z,115.28
2018-12-31T23:39:38.002Z,108.25
2018-12-31T23:42:07.562Z,74.00
2018-12-31T23:44:37.014Z,95.10
2018-12-31T23:47:06.484Z,64.55
2018-12-31T23:49:35.929Z,89.05
2018-12-31T23:52:05.385Z,87.83
2018-12-31T23:54:34.746Z,76.37
2018-12-31T23:57:04.187Z,81.30
2018-12-31T23:59:33.608Z,93.23
